Time;durP1;ratioP1;P1;durP2;ratioP2;P2;SDS_P1;SDS_P2;PMS_P1;PMS_P2;Temp;Humidity;BMP_temperature;BMP_pressure;BME280_temperature;BME280_humidity;BME280_pressure;Samples;Min_cycle;Max_cycle;Signal;HPM_P1;HPM_P2
2021/08/09 00:00:35;;;;;;;0.10;0.10;;;16.90;99.90;;;;;;5069158;28;20504;-74
2021/08/09 00:03:01;;;;;;;0.00;0.00;;;16.90;99.90;;;;;;5069320;28;20165;-74
2021/08/09 00:05:27;;;;;;;1.65;0.52;;;16.80;99.90;;;;;;5067678;28;20728;-74
2021/08/09 00:07:52;;;;;;;0.10;0.10;;;16.70;99.90;;;;;;5067694;28;20193;-75
2021/08/09 00:10:19;;;;;;;0.10;0.10;;;16.70;99.90;;;;;;5067774;28;20172;-74
2021/08/09 00:12:45;;;;;;;0.22;0.22;;;16.70;99.90;;;;;;5069161;28;20171;-75
2021/08/09 00:15:11;;;;;;;0.00;0.00;;;16.70;99.90;;;;;;5067517;28;20172;-74
2021/08/09 00:17:37;;;;;;;0.10;0.10;;;16.80;99.90;;;;;;5067351;28;20192;-74
2021/08/09 00:20:04;;;;;;;0.10;0.10;;;16.80;99.90;;;;;;5068947;28;20520;-74
2021/08/09 00:22:30;;;;;;;0.00;0.00;;;16.70;99.90;;;;;;5067225;28;20203;-74
2021/08/09 00:24:56;;;;;;;0.00;0.00;;;16.60;99.90;;;;;;5068347;28;20690;-74
2021/08/09 00:27:22;;;;;;;0.00;0.00;;;16.50;99.90;;;;;;5083365;28;20203;-74
2021/08/09 00:29:48;;;;;;;0.80;0.52;;;16.50;99.90;;;;;;5070392;28;20164;-74
2021/08/09 00:32:14;;;;;;;0.20;0.20;;;16.50;99.90;;;;;;5088825;28;20182;-74
2021/08/09 00:34:40;;;;;;;0.00;0.00;;;16.50;99.90;;;;;;5070665;28;20172;-75
2021/08/09 00:37:06;;;;;;;0.00;0.00;;;16.50;99.90;;;;;;5088628;28;20184;-75
2021/08/09 00:39:31;;;;;;;0.00;0.00;;;16.40;99.90;;;;;;5070924;28;20179;-75
2021/08/09 00:41:59;;;;;;;0.00;0.00;;;16.60;99.90;;;;;;5070956;28;20227;-75
2021/08/09 00:44:25;;;;;;;0.00;0.00;;;16.60;99.90;;;;;;5088322;28;20742;-75
2021/08/09 00:46:51;;;;;;;0.00;0.00;;;16.80;99.90;;;;;;5088535;28;20171;-75
2021/08/09 00:49:17;;;;;;;0.20;0.20;;;16.80;99.90;;;;;;5070415;28;20172;-73
2021/08/09 00:51:43;;;;;;;0.28;0.28;;;16.80;99.90;;;;;;5070422;28;20164;-73
2021/08/09 00:54:10;;;;;;;0.03;0.03;;;16.90;99.90;;;;;;5088108;28;20193;-74
2021/08/09 00:56:36;;;;;;;0.28;0.28;;;17.10;99.90;;;;;;5088230;28;20156;-74
2021/08/09 00:59:02;;;;;;;0.00;0.00;;;17.20;99.90;;;;;;5070131;28;20174;-74
2021/08/09 01:01:28;;;;;;;0.00;0.00;;;17.40;99.90;;;;;;5087682;28;20570;-74
2021/08/09 01:03:54;;;;;;;0.10;0.10;;;17.50;99.90;;;;;;5069947;28;20227;-75
2021/08/09 01:06:19;;;;;;;0.00;0.00;;;17.70;99.90;;;;;;5088233;28;20164;-74
2021/08/09 01:09:09;;;;;;;0.00;0.00;;;17.80;99.90;;;;;;5070198;28;20164;-74
2021/08/09 01:11:55;;;;;;;0.63;0.63;;;17.70;99.90;;;;;;5069989;28;20168;-75
2021/08/09 01:14:27;;;;;;;0.00;0.00;;;17.80;99.90;;;;;;5070106;28;20199;-75
2021/08/09 01:16:55;;;;;;;0.00;0.00;;;17.80;99.90;;;;;;5088276;28;20156;-75
2021/08/09 01:19:24;;;;;;;0.10;0.10;;;17.80;99.90;;;;;;5088203;28;20550;-74
2021/08/09 01:21:54;;;;;;;0.10;0.10;;;17.80;99.90;;;;;;5070060;28;20601;-74
2021/08/09 01:24:34;;;;;;;0.00;0.00;;;17.70;99.90;;;;;;5069705;28;20223;-75
2021/08/09 01:27:24;;;;;;;0.10;0.10;;;17.80;99.90;;;;;;5087093;28;20148;-75
2021/08/09 01:29:51;;;;;;;0.00;0.00;;;17.80;99.90;;;;;;5087359;28;20187;-75
2021/08/09 01:32:19;;;;;;;0.00;0.00;;;17.80;99.90;;;;;;5088077;28;20180;-75
2021/08/09 01:34:46;;;;;;;0.00;0.00;;;17.80;99.90;;;;;;5087962;28;20210;-75
2021/08/09 01:37:13;;;;;;;0.00;0.00;;;17.80;99.90;;;;;;5087583;28;20226;-75
2021/08/09 01:39:40;;;;;;;0.00;0.00;;;17.80;99.90;;;;;;5087904;28;20275;-75
2021/08/09 01:42:08;;;;;;;0.10;0.10;;;17.60;99.90;;;;;;5088017;28;20182;-75
2021/08/09 01:44:35;;;;;;;0.00;0.00;;;17.60;99.90;;;;;;5069701;28;20200;-76
2021/08/09 01:47:01;;;;;;;0.00;0.00;;;17.50;99.90;;;;;;5069647;28;20172;-75
2021/08/09 01:49:29;;;;;;;0.10;0.10;;;17.40;99.90;;;;;;5069509;28;20206;-75
2021/08/09 01:51:57;;;;;;;0.00;0.00;;;17.40;99.90;;;;;;5087681;28;20156;-75
2021/08/09 01:54:24;;;;;;;0.15;0.15;;;17.20;99.90;;;;;;5087682;28;20160;-75
2021/08/09 01:56:51;;;;;;;0.10;0.10;;;17.00;99.90;;;;;;5069594;28;20221;-75
2021/08/09 01:59:16;;;;;;;0.10;0.10;;;17.00;99.90;;;;;;5087617;28;20187;-75
2021/08/09 02:01:42;;;;;;;0.00;0.00;;;17.00;99.90;;;;;;5087519;28;20220;-75
2021/08/09 02:04:09;;;;;;;0.10;0.10;;;17.00;99.90;;;;;;5069295;28;20302;-76
2021/08/09 02:06:34;;;;;;;0.10;0.10;;;16.90;99.90;;;;;;5087627;28;20512;-76
2021/08/09 02:09:00;;;;;;;0.00;0.00;;;16.90;99.90;;;;;;5069507;28;20290;-76
2021/08/09 02:11:43;;;;;;;0.10;0.10;;;17.00;99.90;;;;;;5069566;28;20253;-76
2021/08/09 02:14:11;;;;;;;0.10;0.10;;;17.00;99.90;;;;;;5073268;28;20164;-75
2021/08/09 02:16:43;;;;;;;0.00;0.00;;;17.10;99.90;;;;;;5091173;28;20184;-76
2021/08/09 02:19:28;;;;;;;0.15;0.15;;;17.20;99.90;;;;;;5072901;28;20222;-76
2021/08/09 02:22:02;;;;;;;0.10;0.10;;;17.20;99.90;;;;;;5072922;28;20168;-76
2021/08/09 02:24:32;;;;;;;0.00;0.00;;;17.10;99.90;;;;;;5090695;28;20230;-76
2021/08/09 02:27:08;;;;;;;0.08;0.08;;;17.10;99.90;;;;;;5090758;28;20168;-76
2021/08/09 02:29:35;;;;;;;0.10;0.10;;;17.10;99.90;;;;;;5072709;28;20179;-76
2021/08/09 02:32:07;;;;;;;0.10;0.10;;;17.10;99.90;;;;;;5072763;28;20175;-75
2021/08/09 02:34:34;;;;;;;0.10;0.10;;;17.10;99.90;;;;;;5090914;28;20628;-74
2021/08/09 02:37:04;;;;;;;0.20;0.20;;;17.10;99.90;;;;;;5072415;28;20632;-74
2021/08/09 02:39:32;;;;;;;0.08;0.08;;;17.00;99.90;;;;;;5072778;28;20263;-75
2021/08/09 02:41:59;;;;;;;0.10;0.10;;;17.00;99.90;;;;;;5072897;28;20172;-75
2021/08/09 02:44:27;;;;;;;1.55;0.57;;;17.00;99.90;;;;;;5090536;28;20247;-75
2021/08/09 02:46:54;;;;;;;0.00;0.00;;;17.00;99.90;;;;;;5090437;28;20203;-75
2021/08/09 02:49:20;;;;;;;0.00;0.00;;;17.20;99.90;;;;;;5072613;28;20182;-74
2021/08/09 02:51:48;;;;;;;0.20;0.20;;;17.20;99.90;;;;;;5090128;28;20640;-76
2021/08/09 02:54:19;;;;;;;0.00;0.00;;;17.30;99.90;;;;;;5072342;28;20202;-76
2021/08/09 02:56:46;;;;;;;0.10;0.10;;;17.50;99.90;;;;;;5089995;28;20167;-78
2021/08/09 02:59:14;;;;;;;0.20;0.20;;;17.40;99.90;;;;;;5089955;28;20198;-79
2021/08/09 03:01:41;;;;;;;0.00;0.00;;;17.20;99.90;;;;;;5072152;28;20518;-76
2021/08/09 03:04:13;;;;;;;0.00;0.00;;;17.30;99.90;;;;;;5071671;28;20250;-76
2021/08/09 03:06:40;;;;;;;0.05;0.05;;;17.50;99.90;;;;;;5072116;28;20602;-76
2021/08/09 03:09:07;;;;;;;0.20;0.20;;;17.40;99.90;;;;;;5089779;28;20188;-76
2021/08/09 03:11:35;;;;;;;0.00;0.00;;;17.40;99.90;;;;;;5089646;28;20224;-78
2021/08/09 03:14:01;;;;;;;0.30;0.30;;;17.30;99.90;;;;;;5071663;28;20176;-77
2021/08/09 03:16:27;;;;;;;0.10;0.10;;;17.20;99.90;;;;;;5071695;28;20206;-78
2021/08/09 03:18:52;;;;;;;0.00;0.00;;;17.10;99.90;;;;;;5089971;28;20160;-76
2021/08/09 03:21:18;;;;;;;0.75;0.75;;;17.00;99.90;;;;;;5089544;28;20160;-77
2021/08/09 03:23:44;;;;;;;0.10;0.10;;;16.80;99.90;;;;;;5088992;28;20172;-77
2021/08/09 03:26:10;;;;;;;0.10;0.10;;;17.00;99.90;;;;;;5071536;28;20195;-77
2021/08/09 03:28:37;;;;;;;0.05;0.05;;;17.00;99.90;;;;;;5089623;28;20152;-78
2021/08/09 03:31:05;;;;;;;0.00;0.00;;;16.80;99.90;;;;;;5071390;28;20173;-78
2021/08/09 03:33:31;;;;;;;0.13;0.13;;;16.70;99.90;;;;;;5089605;28;20624;-77
2021/08/09 03:35:57;;;;;;;0.10;0.10;;;16.40;99.90;;;;;;5089408;28;20211;-78
2021/08/09 03:38:23;;;;;;;0.20;0.20;;;16.40;99.90;;;;;;5089302;28;20183;-77
2021/08/09 03:40:49;;;;;;;0.00;0.00;;;16.30;99.90;;;;;;5071277;28;20650;-77
2021/08/09 03:43:15;;;;;;;0.00;0.00;;;16.20;99.90;;;;;;5071451;28;20168;-77
2021/08/09 03:45:41;;;;;;;0.03;0.03;;;16.10;99.90;;;;;;5089286;28;20222;-77
2021/08/09 03:48:10;;;;;;;0.30;0.30;;;16.10;99.90;;;;;;5089216;28;20160;-78
2021/08/09 03:50:37;;;;;;;0.10;0.10;;;16.00;99.90;;;;;;5088965;28;20156;-80
2021/08/09 03:53:03;;;;;;;0.00;0.00;;;16.00;99.90;;;;;;5089313;28;20617;-76
2021/08/09 03:55:29;;;;;;;0.30;0.30;;;15.90;99.90;;;;;;5089152;28;20226;-77
2021/08/09 03:57:55;;;;;;;0.10;0.10;;;15.90;99.90;;;;;;5070730;28;20171;-75
2021/08/09 04:00:21;;;;;;;0.10;0.10;;;15.90;99.90;;;;;;5089107;28;20223;-77
2021/08/09 04:02:47;;;;;;;0.50;0.50;;;15.90;99.90;;;;;;5070897;28;20164;-75
2021/08/09 04:05:13;;;;;;;0.10;0.10;;;15.90;99.90;;;;;;5088816;28;20209;-78
2021/08/09 04:07:39;;;;;;;0.10;0.10;;;16.00;99.90;;;;;;5088838;28;20171;-77
2021/08/09 04:10:07;;;;;;;0.10;0.10;;;16.20;99.90;;;;;;5071074;28;20688;-78
2021/08/09 04:12:33;;;;;;;2.00;0.93;;;16.40;99.90;;;;;;5088988;28;20152;-77
2021/08/09 04:15:00;;;;;;;0.00;0.00;;;16.60;99.90;;;;;;5070812;28;20183;-78
2021/08/09 04:17:26;;;;;;;0.10;0.10;;;16.50;99.90;;;;;;5087956;28;20164;-78
2021/08/09 04:19:52;;;;;;;0.20;0.20;;;16.40;99.90;;;;;;5071816;28;20184;-78
2021/08/09 04:22:18;;;;;;;0.20;0.20;;;16.40;99.90;;;;;;5088663;28;20180;-76
2021/08/09 04:24:44;;;;;;;0.17;0.17;;;16.40;99.90;;;;;;5088398;28;20216;-76
2021/08/09 04:27:10;;;;;;;0.10;0.10;;;16.40;99.90;;;;;;5088629;28;20676;-80
2021/08/09 04:29:36;;;;;;;0.10;0.10;;;16.40;99.90;;;;;;5087182;28;20232;-78
2021/08/09 04:32:14;;;;;;;1.75;0.65;;;16.40;99.90;;;;;;5087256;28;20165;-77
2021/08/09 04:34:40;;;;;;;0.13;0.13;;;16.40;99.90;;;;;;5088027;28;20161;-78
2021/08/09 04:37:06;;;;;;;0.10;0.10;;;16.40;99.90;;;;;;5088662;28;20667;-81
2021/08/09 04:39:32;;;;;;;0.00;0.00;;;16.40;99.90;;;;;;5087235;28;20171;-77
2021/08/09 04:41:58;;;;;;;0.25;0.25;;;16.40;99.90;;;;;;5088574;28;20164;-78
2021/08/09 04:44:24;;;;;;;0.10;0.10;;;16.30;99.90;;;;;;5088363;28;20206;-78
2021/08/09 04:46:50;;;;;;;0.00;0.00;;;16.30;99.90;;;;;;5087018;28;20211;-77
2021/08/09 04:49:15;;;;;;;0.20;0.20;;;16.30;99.90;;;;;;5088281;28;20230;-77
2021/08/09 04:51:41;;;;;;;0.20;0.20;;;16.30;99.90;;;;;;5088207;28;20168;-77
2021/08/09 04:54:07;;;;;;;0.65;0.50;;;16.40;99.90;;;;;;5087940;28;20160;-76
2021/08/09 04:56:33;;;;;;;0.00;0.00;;;16.40;99.90;;;;;;5088154;28;20191;-78
2021/08/09 04:58:59;;;;;;;0.20;0.20;;;16.50;99.90;;;;;;5088276;28;20215;-76
2021/08/09 05:01:25;;;;;;;0.00;0.00;;;16.50;99.90;;;;;;5088450;28;20193;-77
2021/08/09 05:03:51;;;;;;;0.10;0.10;;;16.50;99.90;;;;;;5088243;28;20163;-77
2021/08/09 05:06:18;;;;;;;0.75;0.55;;;16.60;99.90;;;;;;5088058;28;20195;-78
2021/08/09 05:08:44;;;;;;;0.10;0.10;;;16.80;99.90;;;;;;5086932;28;20188;-77
2021/08/09 05:11:11;;;;;;;0.00;0.00;;;16.80;99.90;;;;;;5088349;28;20160;-76
2021/08/09 05:13:37;;;;;;;0.20;0.20;;;16.90;99.90;;;;;;5087038;28;20168;-77
2021/08/09 05:16:04;;;;;;;0.20;0.20;;;17.00;99.90;;;;;;5088049;28;20223;-77
2021/08/09 05:18:30;;;;;;;6.05;1.08;;;17.10;99.90;;;;;;5086600;28;20255;-77
2021/08/09 05:20:56;;;;;;;0.10;0.10;;;17.20;99.90;;;;;;5086769;28;20164;-77
2021/08/09 05:23:22;;;;;;;0.28;0.25;;;17.20;99.90;;;;;;5088222;28;20165;-76
2021/08/09 05:25:48;;;;;;;0.35;0.30;;;17.20;99.90;;;;;;5086531;28;20230;-77
2021/08/09 05:28:14;;;;;;;0.00;0.00;;;17.30;99.90;;;;;;5088054;28;20239;-77
2021/08/09 05:30:42;;;;;;;0.15;0.15;;;17.50;99.90;;;;;;5086757;28;20172;-76
2021/08/09 05:33:08;;;;;;;0.20;0.20;;;17.60;99.90;;;;;;5086633;28;20181;-77
2021/08/09 05:35:35;;;;;;;0.00;0.00;;;17.60;99.90;;;;;;5088063;28;20166;-77
2021/08/09 05:38:03;;;;;;;0.20;0.20;;;17.70;99.90;;;;;;5087889;28;20199;-77
2021/08/09 05:40:29;;;;;;;0.10;0.10;;;17.70;99.90;;;;;;5087965;28;20220;-77
2021/08/09 05:42:55;;;;;;;0.43;0.43;;;17.70;99.90;;;;;;5087989;28;20180;-77
2021/08/09 05:45:21;;;;;;;0.00;0.00;;;17.70;99.90;;;;;;5088008;28;20191;-77
2021/08/09 05:47:47;;;;;;;0.03;0.03;;;17.70;99.90;;;;;;5089867;28;20230;-76
2021/08/09 05:50:13;;;;;;;1.63;1.23;;;17.90;99.90;;;;;;5090527;28;20297;-76
2021/08/09 05:52:39;;;;;;;0.00;0.00;;;17.90;99.90;;;;;;5091733;28;20215;-77
2021/08/09 05:55:07;;;;;;;0.00;0.00;;;17.90;99.90;;;;;;5091566;28;20171;-77
2021/08/09 05:57:33;;;;;;;0.10;0.10;;;17.80;99.90;;;;;;5091547;28;20172;-77
2021/08/09 05:59:59;;;;;;;0.00;0.00;;;17.80;99.90;;;;;;5090037;28;20201;-76
2021/08/09 06:02:25;;;;;;;0.20;0.20;;;17.80;99.90;;;;;;5091401;28;20164;-76
2021/08/09 06:04:51;;;;;;;0.52;0.47;;;17.90;99.90;;;;;;5091324;28;20188;-77
2021/08/09 06:07:17;;;;;;;0.15;0.15;;;17.80;99.90;;;;;;5089925;28;20232;-76
2021/08/09 06:09:44;;;;;;;0.00;0.00;;;17.80;99.90;;;;;;5089833;28;20211;-76
2021/08/09 06:12:12;;;;;;;0.10;0.10;;;17.80;99.90;;;;;;5091357;28;20152;-77
2021/08/09 06:14:38;;;;;;;0.45;0.45;;;17.90;99.90;;;;;;5090103;28;20172;-77
2021/08/09 06:17:06;;;;;;;0.00;0.00;;;17.90;99.90;;;;;;5091193;28;20175;-76
2021/08/09 06:19:34;;;;;;;0.75;0.70;;;18.00;99.90;;;;;;5089487;28;20229;-76
2021/08/09 06:22:01;;;;;;;0.20;0.20;;;18.00;99.90;;;;;;5091042;28;20535;-76
2021/08/09 06:24:27;;;;;;;0.00;0.00;;;18.00;99.90;;;;;;5086982;28;20228;-76
2021/08/09 06:26:53;;;;;;;0.03;0.03;;;18.30;99.90;;;;;;5097999;28;20172;-76
2021/08/09 06:29:19;;;;;;;0.00;0.00;;;18.40;99.90;;;;;;5086812;28;20230;-76
2021/08/09 06:31:45;;;;;;;0.10;0.10;;;18.50;99.90;;;;;;5094606;28;20235;-77
2021/08/09 06:34:11;;;;;;;0.00;0.00;;;18.50;99.90;;;;;;5092539;28;20171;-76
2021/08/09 06:36:37;;;;;;;0.00;0.00;;;18.50;99.90;;;;;;5090167;28;20171;-76
2021/08/09 06:39:03;;;;;;;1.98;0.30;;;18.50;99.90;;;;;;5073917;28;20238;-75
2021/08/09 06:41:32;;;;;;;0.20;0.20;;;18.70;99.90;;;;;;5072177;28;20190;-75
2021/08/09 06:43:59;;;;;;;0.00;0.00;;;18.70;99.90;;;;;;5071987;28;20200;-75
2021/08/09 06:46:25;;;;;;;0.10;0.10;;;18.60;99.90;;;;;;5084331;28;20179;-76
2021/08/09 06:48:51;;;;;;;0.13;0.13;;;18.60;99.90;;;;;;5080692;28;20247;-76
2021/08/09 06:51:17;;;;;;;0.82;0.82;;;18.70;99.90;;;;;;5061577;28;20217;-76
2021/08/09 06:53:43;;;;;;;0.00;0.00;;;18.80;99.90;;;;;;5078663;28;20204;-76
2021/08/09 06:56:14;;;;;;;0.00;0.00;;;19.00;99.90;;;;;;5062604;28;20156;-76
2021/08/09 06:58:40;;;;;;;0.20;0.20;;;19.10;99.90;;;;;;5084348;28;20209;-76
2021/08/09 07:01:06;;;;;;;0.10;0.10;;;19.10;99.90;;;;;;5089984;28;20152;-75
2021/08/09 07:03:32;;;;;;;0.85;0.85;;;19.00;99.90;;;;;;5089522;28;20187;-76
2021/08/09 07:05:58;;;;;;;0.10;0.10;;;19.10;99.90;;;;;;5089941;28;20245;-76
2021/08/09 07:08:24;;;;;;;0.52;0.52;;;19.20;99.90;;;;;;5090041;28;20251;-77
2021/08/09 07:10:52;;;;;;;0.15;0.15;;;19.20;99.90;;;;;;5089652;28;20192;-76
2021/08/09 07:13:19;;;;;;;0.10;0.10;;;19.30;99.90;;;;;;5089717;28;20163;-76
2021/08/09 07:15:45;;;;;;;0.10;0.10;;;19.30;99.90;;;;;;5089578;28;20179;-77
2021/08/09 07:18:13;;;;;;;0.10;0.10;;;19.50;99.90;;;;;;5089532;28;20219;-79
2021/08/09 07:20:39;;;;;;;0.10;0.10;;;19.40;99.90;;;;;;5089625;28;20225;-77
2021/08/09 07:23:05;;;;;;;0.20;0.20;;;19.40;99.90;;;;;;5070479;28;20172;-77
2021/08/09 07:25:32;;;;;;;0.00;0.00;;;19.60;99.90;;;;;;5080271;28;20216;-76
2021/08/09 07:27:59;;;;;;;0.30;0.30;;;19.60;99.90;;;;;;5076100;28;20213;-76
2021/08/09 07:30:25;;;;;;;0.00;0.00;;;19.50;99.90;;;;;;5089498;28;20176;-77
2021/08/09 07:32:51;;;;;;;0.10;0.10;;;19.50;99.90;;;;;;5077243;28;20161;-76
2021/08/09 07:35:17;;;;;;;0.28;0.28;;;19.60;99.90;;;;;;5069170;28;20160;-76
2021/08/09 07:37:42;;;;;;;2.10;0.65;;;19.70;99.90;;;;;;5069368;28;20161;-76
2021/08/09 07:40:09;;;;;;;0.00;0.00;;;19.80;99.90;;;;;;5070775;28;20686;-76
2021/08/09 07:42:35;;;;;;;0.10;0.10;;;19.80;99.90;;;;;;5089291;28;20176;-76
2021/08/09 07:45:01;;;;;;;0.30;0.30;;;19.80;99.90;;;;;;5089208;28;20249;-76
2021/08/09 07:47:27;;;;;;;0.30;0.30;;;19.80;99.90;;;;;;5089055;28;20160;-76
2021/08/09 07:49:53;;;;;;;0.00;0.00;;;19.90;99.90;;;;;;5089156;28;20222;-76
2021/08/09 07:52:19;;;;;;;0.00;0.00;;;20.30;99.90;;;;;;5071262;28;20175;-76
2021/08/09 07:54:45;;;;;;;0.10;0.10;;;21.30;99.90;;;;;;5089029;28;20167;-76
2021/08/09 07:57:13;;;;;;;0.00;0.00;;;21.70;99.90;;;;;;5069052;28;20171;-76
2021/08/09 07:59:39;;;;;;;0.10;0.10;;;21.80;99.90;;;;;;5068513;28;20234;-76
2021/08/09 08:02:05;;;;;;;0.10;0.10;;;21.70;99.90;;;;;;5067492;28;20230;-76
2021/08/09 08:04:32;;;;;;;0.10;0.10;;;21.70;99.90;;;;;;5050839;28;20323;-76
2021/08/09 08:06:59;;;;;;;0.10;0.10;;;21.20;99.90;;;;;;5050903;28;20168;-76
2021/08/09 08:09:25;;;;;;;0.10;0.10;;;21.60;99.90;;;;;;5068808;28;20203;-75
2021/08/09 08:11:51;;;;;;;0.10;0.10;;;21.90;99.90;;;;;;5068870;28;20175;-77
2021/08/09 08:14:17;;;;;;;0.13;0.13;;;22.50;99.90;;;;;;5068805;28;20160;-74
2021/08/09 08:16:43;;;;;;;0.05;0.05;;;23.30;99.90;;;;;;5068578;28;20238;-75
2021/08/09 08:19:08;;;;;;;0.13;0.10;;;24.00;99.90;;;;;;5050520;28;20227;-76
2021/08/09 08:21:34;;;;;;;0.00;0.00;;;24.20;99.90;;;;;;5067314;28;20181;-75
2021/08/09 08:24:01;;;;;;;0.20;0.20;;;24.00;99.90;;;;;;5069081;28;20219;-75
2021/08/09 08:26:27;;;;;;;0.08;0.08;;;24.20;99.90;;;;;;5068566;28;20270;-75
2021/08/09 08:28:53;;;;;;;0.10;0.10;;;24.70;99.90;;;;;;5066928;28;20294;-75
2021/08/09 08:31:19;;;;;;;0.00;0.00;;;25.20;99.90;;;;;;5069948;28;20160;-75
2021/08/09 08:33:45;;;;;;;0.10;0.10;;;24.70;99.90;;;;;;5070236;28;20179;-75
2021/08/09 08:36:10;;;;;;;0.10;0.10;;;24.50;99.90;;;;;;5070353;28;20168;-76
2021/08/09 08:38:36;;;;;;;0.00;0.00;;;24.90;99.90;;;;;;5088429;28;20191;-75
2021/08/09 08:41:06;;;;;;;0.00;0.00;;;25.00;99.90;;;;;;5088453;28;20151;-76
2021/08/09 08:43:33;;;;;;;0.10;0.10;;;24.20;99.90;;;;;;5070228;28;20174;-76
2021/08/09 08:46:01;;;;;;;0.03;0.03;;;23.60;99.90;;;;;;5088427;28;20690;-76
2021/08/09 08:48:29;;;;;;;1.30;1.20;;;23.60;99.90;;;;;;5070064;28;20190;-75
2021/08/09 08:50:57;;;;;;;0.43;0.30;;;23.70;99.90;;;;;;5086907;28;20197;-75
2021/08/09 08:53:25;;;;;;;0.10;0.10;;;24.00;99.90;;;;;;5104593;28;20254;-75
2021/08/09 08:55:51;;;;;;;1.45;1.35;;;24.80;99.90;;;;;;5089155;28;20211;-75
2021/08/09 08:58:17;;;;;;;0.35;0.30;;;24.60;99.90;;;;;;5086391;28;20207;-75
2021/08/09 09:00:46;;;;;;;0.43;0.43;;;25.00;99.90;;;;;;5087860;28;20174;-75
2021/08/09 09:03:24;;;;;;;0.30;0.30;;;24.80;99.90;;;;;;5086100;28;20174;-75
2021/08/09 09:06:04;;;;;;;0.20;0.20;;;24.50;99.90;;;;;;5093926;28;20560;-75
2021/08/09 09:08:43;;;;;;;0.00;0.00;;;24.60;99.90;;;;;;5091609;28;20175;-76
2021/08/09 09:11:24;;;;;;;0.10;0.10;;;24.10;99.90;;;;;;5086174;28;20177;-75
2021/08/09 09:13:56;;;;;;;0.00;0.00;;;24.50;99.90;;;;;;5094203;28;20197;-75
2021/08/09 09:16:22;;;;;;;0.00;0.00;;;24.10;99.90;;;;;;5096938;28;20254;-75
2021/08/09 09:18:55;;;;;;;0.20;0.20;;;23.30;99.90;;;;;;5084333;28;20170;-75
2021/08/09 09:21:33;;;;;;;0.00;0.00;;;23.60;99.90;;;;;;5092908;28;20175;-75
2021/08/09 09:24:16;;;;;;;0.40;0.40;;;23.80;99.90;;;;;;5103694;28;20221;-75
2021/08/09 09:26:45;;;;;;;0.10;0.10;;;23.20;99.90;;;;;;5103973;28;20227;-74
2021/08/09 09:29:12;;;;;;;0.10;0.10;;;23.70;99.90;;;;;;5095198;28;20171;-75
2021/08/09 09:31:40;;;;;;;0.00;0.00;;;24.70;99.90;;;;;;5088332;28;20178;-75
2021/08/09 09:34:12;;;;;;;0.28;0.28;;;24.90;99.90;;;;;;5066232;28;20661;-75
2021/08/09 09:36:45;;;;;;;0.05;0.05;;;25.30;99.90;;;;;;5069701;28;20206;-76
2021/08/09 09:39:37;;;;;;;0.10;0.10;;;25.90;99.90;;;;;;5090329;28;20202;-77
2021/08/09 09:42:15;;;;;;;0.00;0.00;;;25.70;99.90;;;;;;5110461;28;20155;-76
2021/08/09 09:44:42;;;;;;;0.08;0.08;;;25.00;99.90;;;;;;5110924;28;20651;-77
2021/08/09 09:47:30;;;;;;;0.10;0.10;;;25.30;99.90;;;;;;5112151;28;20155;-77
2021/08/09 09:49:58;;;;;;;0.00;0.00;;;26.00;99.90;;;;;;5093693;28;20170;-77
2021/08/09 09:52:47;;;;;;;0.22;0.22;;;26.20;99.90;;;;;;5112129;28;20158;-76
2021/08/09 09:55:15;;;;;;;0.20;0.20;;;26.30;99.90;;;;;;5110025;28;20223;-75
2021/08/09 09:57:42;;;;;;;0.20;0.20;;;26.50;99.90;;;;;;5074324;28;20171;-76
2021/08/09 10:00:15;;;;;;;0.22;0.05;;;27.00;99.90;;;;;;5071233;28;20224;-75
2021/08/09 10:02:43;;;;;;;0.00;0.00;;;26.80;99.90;;;;;;5071515;28;20179;-75
2021/08/09 10:05:11;;;;;;;0.20;0.20;;;26.40;99.90;;;;;;5071062;28;20191;-75
2021/08/09 10:07:39;;;;;;;0.17;0.17;;;26.10;99.90;;;;;;5071037;28;20188;-75
2021/08/09 10:10:08;;;;;;;0.47;0.10;;;26.50;99.90;;;;;;5078888;28;20168;-75
2021/08/09 10:12:36;;;;;;;0.10;0.10;;;26.90;99.90;;;;;;5081384;28;20161;-76
2021/08/09 10:15:04;;;;;;;0.10;0.10;;;27.60;99.90;;;;;;5064031;28;20187;-75
2021/08/09 10:17:31;;;;;;;2.80;1.40;;;27.70;99.90;;;;;;5079016;28;20182;-76
2021/08/09 10:20:09;;;;;;;0.10;0.10;;;27.90;99.90;;;;;;5080938;28;20178;-74
2021/08/09 10:22:35;;;;;;;0.10;0.10;;;27.30;99.90;;;;;;5081601;28;20167;-74
2021/08/09 10:25:02;;;;;;;0.10;0.10;;;26.80;99.90;;;;;;5064609;28;20316;-75
2021/08/09 10:27:57;;;;;;;0.00;0.00;;;26.50;99.90;;;;;;5090399;28;20167;-75
2021/08/09 10:30:37;;;;;;;3.10;1.10;;;27.00;99.90;;;;;;5088488;28;20183;-77
2021/08/09 10:33:10;;;;;;;0.00;0.00;;;27.20;99.90;;;;;;5087974;28;20175;-77
2021/08/09 10:35:38;;;;;;;0.20;0.15;;;27.60;99.90;;;;;;5090591;28;20167;-74
2021/08/09 10:38:16;;;;;;;0.40;0.32;;;26.90;99.90;;;;;;5072555;28;20223;-76
2021/08/09 10:40:43;;;;;;;0.00;0.00;;;25.50;99.90;;;;;;5090737;28;20178;-76
2021/08/09 10:43:10;;;;;;;0.10;0.10;;;24.30;99.90;;;;;;5072180;28;20186;-76
2021/08/09 10:45:49;;;;;;;0.10;0.10;;;24.00;99.90;;;;;;5090283;28;20192;-76
2021/08/09 10:48:44;;;;;;;0.08;0.08;;;25.40;99.90;;;;;;5090224;28;20223;-76
2021/08/09 10:51:11;;;;;;;0.10;0.10;;;26.60;99.90;;;;;;5063016;28;20187;-76
2021/08/09 10:53:44;;;;;;;0.20;0.20;;;27.90;99.90;;;;;;5064832;28;20198;-75
2021/08/09 10:56:44;;;;;;;3.70;0.40;;;27.30;99.90;;;;;;5071924;28;20175;-76
2021/08/09 10:59:29;;;;;;;0.00;0.00;;;27.50;99.90;;;;;;5088765;28;20203;-76
2021/08/09 11:02:00;;;;;;;0.00;0.00;;;27.40;99.90;;;;;;5089911;28;20175;-76
2021/08/09 11:04:25;;;;;;;0.00;0.00;;;27.70;99.90;;;;;;5071962;28;20220;-76
2021/08/09 11:06:55;;;;;;;0.28;0.28;;;28.10;99.90;;;;;;5088564;28;20167;-76
2021/08/09 11:09:30;;;;;;;0.20;0.20;;;28.30;99.90;;;;;;5089767;28;20184;-76
2021/08/09 11:12:09;;;;;;;0.00;0.00;;;28.90;99.90;;;;;;5090032;28;20245;-76
2021/08/09 11:15:21;;;;;;;0.10;0.10;;;29.30;99.90;;;;;;5090178;28;20191;-76
2021/08/09 11:17:50;;;;;;;0.10;0.10;;;27.90;99.90;;;;;;5089354;28;20677;-76
2021/08/09 11:20:30;;;;;;;6.85;0.93;;;27.50;99.90;;;;;;5086322;28;20229;-74
2021/08/09 11:23:11;;;;;;;0.08;0.08;;;27.80;99.90;;;;;;5079758;28;20175;-75
2021/08/09 11:25:46;;;;;;;0.13;0.13;;;28.10;99.90;;;;;;5085751;28;20267;-75
2021/08/09 11:28:18;;;;;;;0.20;0.20;;;27.70;99.90;;;;;;5071736;28;20201;-75
2021/08/09 11:31:04;;;;;;;2.25;0.80;;;27.60;99.90;;;;;;5085010;28;20167;-75
2021/08/09 11:33:34;;;;;;;0.20;0.10;;;27.70;99.90;;;;;;5089586;28;20303;-75
2021/08/09 11:36:01;;;;;;;0.10;0.10;;;27.70;99.90;;;;;;5071320;28;20255;-76
2021/08/09 11:38:29;;;;;;;0.70;0.40;;;27.70;99.90;;;;;;5071382;28;20240;-76
2021/08/09 11:41:01;;;;;;;0.10;0.10;;;28.00;99.90;;;;;;5071315;28;20205;-75
2021/08/09 11:43:29;;;;;;;0.10;0.10;;;28.30;99.90;;;;;;5089362;28;20187;-76
2021/08/09 11:46:02;;;;;;;0.20;0.20;;;28.60;99.90;;;;;;5090744;28;20199;-76
2021/08/09 11:48:30;;;;;;;0.10;0.10;;;29.00;99.90;;;;;;5090586;28;20214;-76
2021/08/09 11:51:09;;;;;;;0.20;0.20;;;29.10;99.90;;;;;;5090034;28;20152;-75
2021/08/09 11:53:37;;;;;;;0.40;0.40;;;28.40;99.90;;;;;;5089077;28;20151;-76
2021/08/09 11:56:14;;;;;;;0.20;0.13;;;28.10;99.90;;;;;;5063581;28;20239;-76
2021/08/09 11:58:41;;;;;;;0.00;0.00;;;28.00;99.90;;;;;;5087366;28;20206;-76
2021/08/09 12:01:08;;;;;;;0.10;0.10;;;27.90;99.90;;;;;;5070646;28;20163;-75
2021/08/09 12:03:35;;;;;;;0.15;0.15;;;26.60;99.90;;;;;;5088868;28;20167;-75
2021/08/09 12:06:23;;;;;;;0.10;0.10;;;25.10;99.90;;;;;;5070874;28;20195;-75
2021/08/09 12:08:57;;;;;;;0.20;0.20;;;24.30;99.90;;;;;;5088677;28;20191;-77
2021/08/09 12:11:28;;;;;;;0.10;0.10;;;24.00;99.90;;;;;;5088777;28;20147;-76
2021/08/09 12:14:11;;;;;;;0.10;0.10;;;23.90;99.90;;;;;;5088712;28;20155;-76
2021/08/09 12:16:59;;;;;;;0.22;0.22;;;23.90;99.90;;;;;;5070860;28;20167;-76
2021/08/09 12:19:54;;;;;;;0.00;0.00;;;23.90;99.90;;;;;;5088774;28;20202;-75
2021/08/09 12:22:34;;;;;;;0.08;0.08;;;24.00;99.90;;;;;;5046574;28;20181;-76
2021/08/09 12:25:12;;;;;;;2.72;1.58;;;24.20;99.90;;;;;;5045141;28;20248;-76
2021/08/09 12:27:40;;;;;;;0.10;0.10;;;24.30;99.90;;;;;;5026489;28;20213;-76
2021/08/09 12:30:09;;;;;;;0.00;0.00;;;24.40;99.90;;;;;;5028377;28;20161;-76
2021/08/09 12:32:37;;;;;;;0.10;0.10;;;24.50;99.90;;;;;;5046344;28;20192;-76
2021/08/09 12:35:05;;;;;;;0.00;0.00;;;24.60;99.90;;;;;;5046635;28;20712;-75
2021/08/09 12:37:31;;;;;;;0.00;0.00;;;24.30;99.90;;;;;;5045574;28;20308;-76
2021/08/09 12:40:12;;;;;;;0.13;0.13;;;24.10;99.90;;;;;;5051372;28;20209;-76
2021/08/09 12:42:39;;;;;;;0.15;0.15;;;24.00;99.90;;;;;;5053896;28;20165;-76
2021/08/09 12:45:07;;;;;;;0.70;0.22;;;23.90;99.90;;;;;;5053124;28;20235;-76
2021/08/09 12:47:32;;;;;;;0.15;0.15;;;24.20;99.90;;;;;;5038163;28;20164;-76
2021/08/09 12:49:58;;;;;;;0.30;0.17;;;24.30;99.90;;;;;;5054524;28;20230;-76
2021/08/09 12:52:24;;;;;;;0.03;0.03;;;24.50;99.90;;;;;;5036690;28;20185;-76
2021/08/09 12:54:50;;;;;;;0.00;0.00;;;24.70;99.90;;;;;;5038726;28;20569;-76
2021/08/09 12:57:17;;;;;;;0.10;0.10;;;24.80;99.90;;;;;;5053832;28;20173;-75